createdAt,value
2019-05-02T00:01:42.539Z,9.60
2019-05-02T00:04:19.587Z,9.40
2019-05-02T00:06:45.197Z,9.50
2019-05-02T00:09:14.714Z,9.40
2019-05-02T00:11:44.177Z,9.40
2019-05-02T00:14:13.920Z,9.30
2019-05-02T00:16:45.115Z,9.50
2019-05-02T00:19:15.416Z,9.40
2019-05-02T00:21:44.940Z,9.20
2019-05-02T00:24:14.196Z,9.20
2019-05-02T00:26:43.634Z,8.90
2019-05-02T00:29:13.106Z,9.20
2019-05-02T00:31:46.959Z,9.30
2019-05-02T00:34:13.573Z,9.20
2019-05-02T00:36:42.953Z,9.00
2019-05-02T00:39:13.718Z,8.90
2019-05-02T00:41:43.484Z,8.70
2019-05-02T00:44:12.796Z,8.60
2019-05-02T00:46:42.098Z,8.80
2019-05-02T00:49:11.476Z,8.60
2019-05-02T00:51:40.699Z,8.70
2019-05-02T00:54:10.044Z,8.70
2019-05-02T00:56:40.237Z,8.50
2019-05-02T00:59:10.646Z,8.60
2019-05-02T01:02:00.152Z,8.60
2019-05-02T01:04:30.032Z,8.70
2019-05-02T01:06:59.310Z,8.40
2019-05-02T01:09:29.050Z,8.30
2019-05-02T01:11:58.407Z,8.40
2019-05-02T01:14:31.873Z,8.20
2019-05-02T01:16:58.878Z,8.00
2019-05-02T01:19:28.341Z,8.10
2019-05-02T01:21:57.759Z,8.10
2019-05-02T01:24:27.115Z,8.20
2019-05-02T01:27:08.530Z,8.40
2019-05-02T01:29:41.939Z,8.50
2019-05-02T01:32:36.882Z,8.10
2019-05-02T01:35:14.412Z,8.40
2019-05-02T01:38:14.911Z,8.40
2019-05-02T01:40:48.161Z,8.10
2019-05-02T01:43:25.606Z,8.30
2019-05-02T01:45:55.405Z,8.10
2019-05-02T01:48:24.933Z,8.20
2019-05-02T01:50:54.273Z,8.10
2019-05-02T01:53:23.565Z,8.10
2019-05-02T01:55:57.370Z,8.00
2019-05-02T01:58:24.224Z,8.20
2019-05-02T02:00:53.594Z,8.10
2019-05-02T02:03:22.987Z,8.10
2019-05-02T02:05:52.301Z,8.00
2019-05-02T02:08:21.621Z,8.10
2019-05-02T02:10:56.051Z,8.00
2019-05-02T02:13:22.010Z,8.00
2019-05-02T02:15:51.395Z,7.90
2019-05-02T02:18:26.989Z,8.10
2019-05-02T02:21:19.973Z,8.10
2019-05-02T02:23:57.258Z,7.80
2019-05-02T02:26:26.568Z,7.50
2019-05-02T02:28:55.955Z,7.60
2019-05-02T02:31:25.285Z,7.50
2019-05-02T02:33:54.807Z,7.90
2019-05-02T02:36:31.531Z,7.80
2019-05-02T02:38:55.434Z,7.80
2019-05-02T02:41:24.742Z,7.80
2019-05-02T02:44:12.767Z,7.90
2019-05-02T02:46:44.122Z,8.00
2019-05-02T02:49:21.483Z,8.10
2019-05-02T02:51:44.548Z,7.80
2019-05-02T02:54:13.793Z,7.80
2019-05-02T02:56:43.092Z,7.80
2019-05-02T02:59:12.553Z,7.50
2019-05-02T03:01:41.815Z,7.50
2019-05-02T03:04:12.166Z,7.60
2019-05-02T03:06:44.962Z,7.70
2019-05-02T03:09:13.071Z,7.60
2019-05-02T03:12:02.095Z,7.70
2019-05-02T03:14:32.429Z,7.80
2019-05-02T03:17:01.743Z,7.70
2019-05-02T03:19:31.111Z,7.90
2019-05-02T03:22:01.949Z,7.70
2019-05-02T03:24:36.803Z,7.70
2019-05-02T03:27:02.759Z,7.70
2019-05-02T03:29:40.867Z,7.70
2019-05-02T03:32:14.568Z,7.40
2019-05-02T03:34:47.822Z,7.60
2019-05-02T03:37:10.550Z,7.70
2019-05-02T03:39:36.363Z,7.70
2019-05-02T03:42:05.681Z,7.50
2019-05-02T03:44:35.029Z,7.60
2019-05-02T03:47:05.189Z,7.50
2019-05-02T03:49:41.082Z,7.50
2019-05-02T03:52:06.113Z,7.60
2019-05-02T03:54:35.542Z,7.50
2019-05-02T03:57:05.042Z,6.80
2019-05-02T03:59:38.581Z,6.80
2019-05-02T04:02:05.538Z,7.20
2019-05-02T04:04:35.447Z,7.50
2019-05-02T04:07:05.120Z,7.30
2019-05-02T04:09:42.238Z,7.40
2019-05-02T04:12:11.840Z,7.60
2019-05-02T04:14:39.624Z,7.40
2019-05-02T04:17:10.575Z,7.30
2019-05-02T04:19:40.704Z,7.30
2019-05-02T04:22:12.010Z,7.30
2019-05-02T04:24:47.957Z,7.40
2019-05-02T04:27:13.823Z,7.70
2019-05-02T04:29:43.485Z,7.60
2019-05-02T04:32:14.480Z,7.80
2019-05-02T04:34:49.161Z,7.90
2019-05-02T04:37:15.213Z,7.80
2019-05-02T04:39:48.879Z,7.50
2019-05-02T04:42:22.019Z,7.70
2019-05-02T04:45:12.056Z,7.30
2019-05-02T04:47:21.784Z,7.80
2019-05-02T04:49:52.064Z,7.60
2019-05-02T04:52:21.523Z,7.60
2019-05-02T04:54:51.032Z,7.70
2019-05-02T04:57:20.261Z,8.00
2019-05-02T04:59:50.591Z,8.20
2019-05-02T05:02:29.708Z,8.20
2019-05-02T05:04:51.691Z,8.00
2019-05-02T05:07:21.041Z,7.90
2019-05-02T05:10:00.878Z,7.80
2019-05-02T05:12:21.422Z,8.20
2019-05-02T05:14:50.768Z,8.30
2019-05-02T05:17:20.276Z,8.10
2019-05-02T05:19:49.582Z,8.50
2019-05-02T05:22:18.938Z,8.70
2019-05-02T05:25:03.835Z,8.80
2019-05-02T05:27:33.185Z,8.70
2019-05-02T05:30:09.579Z,8.70
2019-05-02T05:32:34.605Z,8.60
2019-05-02T05:35:09.170Z,8.60
2019-05-02T05:37:38.078Z,8.70
2019-05-02T05:40:08.356Z,8.50
2019-05-02T05:42:38.004Z,8.40
2019-05-02T05:45:12.126Z,8.70
2019-05-02T05:47:39.650Z,8.70
2019-05-02T05:50:09.313Z,8.80
2019-05-02T05:52:42.279Z,8.90
2019-05-02T05:55:12.849Z,8.60
2019-05-02T05:57:40.794Z,8.70
2019-05-02T06:00:15.933Z,9.10
2019-05-02T06:02:52.689Z,8.50
2019-05-02T06:05:12.643Z,8.70
2019-05-02T06:07:44.940Z,9.00
2019-05-02T06:10:13.106Z,9.10
2019-05-02T06:12:42.323Z,8.90
2019-05-02T06:15:11.936Z,8.90
2019-05-02T06:17:41.334Z,9.10
2019-05-02T06:20:10.859Z,9.50
2019-05-02T06:22:40.286Z,9.50
2019-05-02T06:25:10.317Z,9.60
2019-05-02T06:27:39.798Z,9.50
2019-05-02T06:30:09.670Z,9.30
2019-05-02T06:32:39.251Z,9.60
2019-05-02T06:35:09.872Z,9.90
2019-05-02T06:37:40.806Z,10.40
2019-05-02T06:40:10.513Z,10.60
2019-05-02T06:42:39.939Z,10.50
2019-05-02T06:45:10.176Z,10.90
2019-05-02T06:47:41.397Z,10.60
2019-05-02T06:50:11.202Z,10.70
2019-05-02T06:52:40.643Z,10.70
2019-05-02T06:55:10.612Z,10.90
2019-05-02T06:57:39.941Z,11.20
2019-05-02T07:00:09.843Z,11.40
2019-05-02T07:02:39.265Z,11.40
2019-05-02T07:05:08.831Z,12.00
2019-05-02T07:07:38.534Z,11.90
2019-05-02T07:10:08.488Z,11.80
2019-05-02T07:12:38.069Z,11.80
2019-05-02T07:15:10.874Z,11.90
2019-05-02T07:17:45.019Z,11.80
2019-05-02T07:20:14.641Z,11.90
2019-05-02T07:22:45.617Z,12.40
2019-05-02T07:25:17.415Z,12.40
2019-05-02T07:27:46.738Z,12.70
2019-05-02T07:30:16.250Z,13.20
2019-05-02T07:32:45.580Z,13.90
2019-05-02T07:35:19.275Z,14.20
2019-05-02T07:37:48.776Z,15.10
2019-05-02T07:40:18.827Z,15.40
2019-05-02T07:42:48.254Z,15.70
2019-05-02T07:45:17.717Z,15.70
2019-05-02T07:47:47.058Z,15.70
2019-05-02T07:50:16.406Z,15.80
2019-05-02T07:52:45.770Z,15.00
2019-05-02T07:55:15.194Z,15.30
2019-05-02T07:57:45.640Z,14.90
2019-05-02T08:00:16.156Z,14.60
2019-05-02T08:02:45.560Z,15.10
2019-05-02T08:05:15.764Z,15.50
2019-05-02T08:07:46.061Z,16.10
2019-05-02T08:10:21.721Z,16.40
2019-05-02T08:12:47.647Z,16.70
2019-05-02T08:15:17.209Z,17.00
2019-05-02T08:17:53.248Z,17.30
2019-05-02T08:20:19.016Z,15.70
2019-05-02T08:22:50.306Z,16.80
2019-05-02T08:25:19.957Z,17.80
2019-05-02T08:28:00.429Z,17.60
2019-05-02T08:30:40.415Z,17.80
2019-05-02T08:33:07.640Z,17.10
2019-05-02T08:35:37.058Z,16.20
2019-05-02T08:38:06.285Z,17.10
2019-05-02T08:40:35.580Z,17.10
2019-05-02T08:43:08.960Z,17.20
2019-05-02T08:45:38.205Z,18.50
2019-05-02T08:48:06.998Z,18.90
2019-05-02T08:50:36.463Z,19.00
2019-05-02T08:53:05.775Z,18.10
2019-05-02T08:55:35.050Z,18.70
2019-05-02T08:58:06.539Z,19.60
2019-05-02T09:00:37.535Z,19.80
2019-05-02T09:03:06.595Z,19.60
2019-05-02T09:05:36.351Z,19.30
2019-05-02T09:08:09.119Z,19.70
2019-05-02T09:10:42.067Z,19.70
2019-05-02T09:13:09.051Z,20.30
2019-05-02T09:15:40.200Z,18.40
2019-05-02T09:18:09.501Z,19.40
2019-05-02T09:20:38.983Z,19.00
2019-05-02T09:23:08.428Z,18.00
2019-05-02T09:25:37.808Z,18.70
2019-05-02T09:28:07.181Z,18.30
2019-05-02T09:30:36.432Z,17.90
2019-05-02T09:33:06.782Z,17.50
2019-05-02T09:35:36.396Z,18.20
2019-05-02T09:38:05.814Z,18.40
2019-05-02T09:40:35.121Z,17.00
2019-05-02T09:43:04.880Z,16.60
2019-05-02T09:45:37.420Z,16.40
2019-05-02T09:48:08.189Z,16.90
2019-05-02T09:50:38.467Z,17.50
2019-05-02T09:53:13.012Z,17.60
2019-05-02T09:55:42.388Z,18.20
2019-05-02T09:58:10.370Z,17.80
2019-05-02T10:01:02.025Z,17.60
2019-05-02T10:03:31.927Z,17.70
2019-05-02T10:06:03.153Z,18.10
2019-05-02T10:08:32.757Z,17.40
2019-05-02T10:11:02.782Z,16.90
2019-05-02T10:13:33.327Z,17.00
2019-05-02T10:16:02.779Z,17.40
2019-05-02T10:18:32.916Z,17.30
2019-05-02T10:21:03.157Z,17.50
2019-05-02T10:23:32.771Z,17.70
2019-05-02T10:26:02.868Z,17.60
2019-05-02T10:28:32.395Z,18.00
2019-05-02T10:31:02.390Z,17.30
2019-05-02T10:33:33.664Z,17.40
2019-05-02T10:36:02.833Z,18.10
2019-05-02T10:38:32.670Z,18.70
2019-05-02T10:41:04.740Z,19.00
2019-05-02T10:43:33.422Z,20.00
2019-05-02T10:46:27.899Z,19.50
2019-05-02T10:49:02.246Z,19.30
2019-05-02T10:51:41.721Z,19.80
2019-05-02T10:54:08.696Z,19.00
2019-05-02T10:56:38.065Z,18.80
2019-05-02T10:59:07.484Z,17.80
2019-05-02T11:01:54.311Z,18.80
2019-05-02T11:04:28.963Z,18.30
2019-05-02T11:06:56.681Z,17.80
2019-05-02T11:09:26.425Z,17.10
2019-05-02T11:11:55.979Z,16.80
2019-05-02T11:14:32.101Z,16.80
2019-05-02T11:17:13.817Z,17.10
2019-05-02T11:19:44.351Z,17.00
2019-05-02T11:22:13.992Z,16.90
2019-05-02T11:24:43.393Z,17.30
2019-05-02T11:27:13.189Z,18.30
2019-05-02T11:29:42.830Z,18.30
2019-05-02T11:32:12.828Z,18.40
2019-05-02T11:34:42.743Z,19.20
2019-05-02T11:37:12.286Z,19.30
2019-05-02T11:39:46.237Z,19.60
2019-05-02T11:42:13.110Z,18.90
2019-05-02T11:44:42.863Z,18.00
2019-05-02T11:47:12.699Z,18.80
2019-05-02T11:49:46.860Z,18.80
2019-05-02T11:52:16.376Z,18.40
2019-05-02T11:54:48.525Z,18.80
2019-05-02T11:57:22.781Z,18.70
2019-05-02T11:59:48.039Z,18.30
2019-05-02T12:02:49.069Z,18.70
2019-05-02T12:05:22.199Z,18.70
2019-05-02T12:07:55.012Z,19.20
2019-05-02T12:10:27.920Z,19.30
2019-05-02T12:12:55.473Z,20.00
2019-05-02T12:15:25.056Z,19.50
2019-05-02T12:17:54.511Z,19.00
2019-05-02T12:20:28.656Z,19.20
2019-05-02T12:22:55.689Z,18.60
2019-05-02T12:25:24.974Z,18.80
2019-05-02T12:27:54.326Z,19.20
2019-05-02T12:30:23.699Z,18.70
2019-05-02T12:32:53.173Z,19.60
2019-05-02T12:35:22.931Z,20.50
2019-05-02T12:37:55.212Z,19.80
2019-05-02T12:40:23.308Z,19.10
2019-05-02T12:42:52.651Z,19.60
2019-05-02T12:45:22.070Z,19.80
2019-05-02T12:47:52.301Z,19.90
2019-05-02T12:50:22.617Z,19.50
2019-05-02T12:52:55.470Z,19.30
2019-05-02T12:55:23.487Z,20.00
2019-05-02T12:57:53.075Z,19.80
2019-05-02T13:00:22.636Z,19.40
2019-05-02T13:02:58.742Z,18.70
2019-05-02T13:05:28.143Z,19.10
2019-05-02T13:07:57.475Z,18.80
2019-05-02T13:10:45.651Z,19.20
2019-05-02T13:13:16.271Z,18.70
2019-05-02T13:15:46.043Z,18.30
2019-05-02T13:18:18.675Z,18.40
2019-05-02T13:20:47.104Z,18.50
2019-05-02T13:23:38.896Z,18.30
2019-05-02T13:26:18.461Z,18.40
2019-05-02T13:28:42.378Z,18.20
2019-05-02T13:31:18.630Z,18.50
2019-05-02T13:33:58.352Z,18.70
2019-05-02T13:36:42.780Z,19.20
2019-05-02T13:39:22.014Z,18.90
2019-05-02T13:41:52.178Z,18.50
2019-05-02T13:44:25.195Z,18.70
2019-05-02T13:46:54.699Z,19.10
2019-05-02T13:49:24.105Z,19.10
2019-05-02T13:51:53.534Z,19.40
2019-05-02T13:54:22.890Z,19.50
2019-05-02T13:56:53.023Z,18.90
2019-05-02T13:59:22.604Z,18.90
2019-05-02T14:01:53.854Z,19.20
2019-05-02T14:04:23.634Z,19.00
2019-05-02T14:06:53.139Z,18.70
2019-05-02T14:09:32.326Z,19.10
2019-05-02T14:12:32.956Z,19.10
2019-05-02T14:15:03.033Z,19.60
2019-05-02T14:17:32.723Z,19.20
2019-05-02T14:20:10.692Z,19.50
2019-05-02T14:22:33.366Z,19.70
2019-05-02T14:25:22.386Z,19.20
2019-05-02T14:27:55.592Z,19.20
2019-05-02T14:30:36.069Z,19.00
2019-05-02T14:32:58.748Z,19.30
2019-05-02T14:35:32.445Z,19.10
2019-05-02T14:38:08.676Z,18.80
2019-05-02T14:40:44.330Z,18.70
2019-05-02T14:43:16.525Z,18.80
2019-05-02T14:45:50.318Z,19.80
2019-05-02T14:48:22.258Z,19.90
2019-05-02T14:50:52.109Z,19.20
2019-05-02T14:53:25.200Z,19.20
2019-05-02T14:55:57.626Z,19.20
2019-05-02T14:58:25.591Z,18.70
2019-05-02T15:00:56.866Z,18.70
2019-05-02T15:03:28.462Z,19.00
2019-05-02T15:05:58.981Z,19.00
2019-05-02T15:08:29.351Z,19.00
2019-05-02T15:10:59.000Z,19.10
2019-05-02T15:13:32.327Z,19.50
2019-05-02T15:15:59.876Z,19.40
2019-05-02T15:18:32.143Z,19.50
2019-05-02T15:21:03.861Z,19.00
2019-05-02T15:23:32.566Z,18.70
2019-05-02T15:26:02.603Z,18.80
2019-05-02T15:28:37.449Z,18.70
2019-05-02T15:31:06.383Z,18.60
2019-05-02T15:33:42.123Z,18.40
2019-05-02T15:36:12.235Z,18.20
2019-05-02T15:38:47.154Z,18.30
2019-05-02T15:41:15.354Z,18.30
2019-05-02T15:43:49.038Z,18.00
2019-05-02T15:46:22.566Z,18.00
2019-05-02T15:48:47.277Z,18.10
2019-05-02T15:51:16.948Z,18.00
2019-05-02T15:54:05.978Z,18.00
2019-05-02T15:56:28.991Z,17.90
2019-05-02T15:59:03.388Z,18.00
2019-05-02T16:01:49.104Z,17.90
2019-05-02T16:04:24.074Z,18.00
2019-05-02T16:06:52.960Z,18.10
2019-05-02T16:09:22.887Z,17.90
2019-05-02T16:11:56.778Z,17.90
2019-05-02T16:14:27.171Z,17.90
2019-05-02T16:16:57.525Z,17.70
2019-05-02T16:19:29.295Z,17.70
2019-05-02T16:22:11.494Z,17.70
2019-05-02T16:24:44.006Z,17.70
2019-05-02T16:27:16.553Z,17.60
2019-05-02T16:29:43.603Z,17.50
2019-05-02T16:32:31.047Z,17.50
2019-05-02T16:35:07.223Z,17.50
2019-05-02T16:37:33.028Z,17.50
2019-05-02T16:40:02.920Z,17.60
2019-05-02T16:42:32.882Z,17.60
2019-05-02T16:45:02.828Z,17.70
2019-05-02T16:47:32.750Z,17.50
2019-05-02T16:50:02.652Z,17.50
2019-05-02T16:52:32.704Z,17.60
2019-05-02T16:55:02.865Z,17.50
2019-05-02T16:57:35.087Z,17.40
2019-05-02T17:00:06.191Z,17.50
2019-05-02T17:02:37.955Z,17.50
2019-05-02T17:05:09.366Z,17.40
2019-05-02T17:07:55.877Z,17.30
2019-05-02T17:10:52.655Z,17.30
2019-05-02T17:13:18.799Z,17.30
2019-05-02T17:15:48.368Z,17.20
2019-05-02T17:18:18.417Z,17.30
2019-05-02T17:20:54.932Z,17.40
2019-05-02T17:23:18.982Z,17.40
2019-05-02T17:25:48.392Z,17.50
2019-05-02T17:28:17.880Z,17.40
2019-05-02T17:30:47.408Z,17.40
2019-05-02T17:33:16.955Z,17.30
2019-05-02T17:35:51.246Z,17.30
2019-05-02T17:38:19.216Z,17.20
2019-05-02T17:40:51.577Z,17.10
2019-05-02T17:43:20.092Z,17.10
2019-05-02T17:45:49.606Z,17.10
2019-05-02T17:48:19.002Z,17.10
2019-05-02T17:51:06.352Z,17.00
2019-05-02T17:53:41.059Z,17.00
2019-05-02T17:56:06.998Z,17.10
2019-05-02T17:58:36.435Z,17.10
2019-05-02T18:01:09.726Z,17.10
2019-05-02T18:03:39.450Z,17.00
2019-05-02T18:06:13.295Z,16.90
2019-05-02T18:08:41.637Z,16.80
2019-05-02T18:11:12.615Z,16.70
2019-05-02T18:13:42.414Z,16.70
2019-05-02T18:16:15.093Z,16.60
2019-05-02T18:18:46.670Z,16.60
2019-05-02T18:21:17.693Z,16.70
2019-05-02T18:23:45.323Z,16.80
2019-05-02T18:26:14.661Z,16.70
2019-05-02T18:28:49.042Z,16.80
2019-05-02T18:31:15.374Z,16.70
2019-05-02T18:33:45.015Z,16.70
2019-05-02T18:36:17.361Z,16.90
2019-05-02T18:38:45.797Z,16.90
2019-05-02T18:41:15.502Z,16.70
2019-05-02T18:43:45.385Z,16.70
2019-05-02T18:46:15.046Z,16.70
2019-05-02T18:48:46.863Z,16.50
2019-05-02T18:51:18.907Z,16.30
2019-05-02T18:53:47.392Z,16.10
2019-05-02T18:56:16.802Z,15.90
2019-05-02T18:58:46.294Z,15.90
2019-05-02T19:01:17.815Z,16.10
2019-05-02T19:03:51.784Z,16.20
2019-05-02T19:06:18.428Z,15.90
2019-05-02T19:08:50.287Z,15.50
2019-05-02T19:11:22.008Z,15.60
2019-05-02T19:13:52.662Z,15.80
2019-05-02T19:16:27.229Z,15.90
2019-05-02T19:18:57.137Z,15.40
2019-05-02T19:21:26.343Z,15.40
2019-05-02T19:23:56.050Z,15.20
2019-05-02T19:26:25.475Z,14.80
2019-05-02T19:29:16.979Z,14.00
2019-05-02T19:31:46.569Z,13.80
2019-05-02T19:34:16.820Z,13.60
2019-05-02T19:36:47.001Z,13.70
2019-05-02T19:39:16.764Z,13.60
2019-05-02T19:41:46.199Z,13.50
2019-05-02T19:44:15.563Z,13.50
2019-05-02T19:46:44.996Z,13.40
2019-05-02T19:49:16.345Z,13.50
2019-05-02T19:51:50.317Z,13.60
2019-05-02T19:54:17.044Z,13.40
2019-05-02T19:56:47.613Z,13.20
2019-05-02T19:59:24.740Z,13.00
2019-05-02T20:01:48.295Z,13.10
2019-05-02T20:04:17.727Z,12.50
2019-05-02T20:06:47.226Z,12.60
2019-05-02T20:09:16.804Z,12.70
2019-05-02T20:11:46.167Z,12.60
2019-05-02T20:14:15.648Z,12.70
2019-05-02T20:16:52.758Z,12.70
2019-05-02T20:19:25.706Z,12.50
2019-05-02T20:22:15.114Z,12.60
2019-05-02T20:25:00.138Z,12.70
2019-05-02T20:27:28.526Z,12.60
2019-05-02T20:29:58.368Z,12.50
2019-05-02T20:32:27.803Z,12.90
2019-05-02T20:34:57.281Z,13.10
2019-05-02T20:37:26.809Z,12.80
2019-05-02T20:39:56.392Z,12.60
2019-05-02T20:42:25.875Z,12.60
2019-05-02T20:44:55.204Z,12.90
2019-05-02T20:47:28.043Z,12.90
2019-05-02T20:49:57.356Z,12.40
2019-05-02T20:52:26.669Z,12.60
2019-05-02T20:54:56.088Z,12.70
2019-05-02T20:57:25.476Z,12.30
2019-05-02T20:59:55.010Z,11.90
2019-05-02T21:02:24.393Z,11.80
2019-05-02T21:04:54.024Z,11.80
2019-05-02T21:07:48.475Z,11.80
2019-05-02T21:10:22.016Z,11.80
2019-05-02T21:12:52.621Z,11.70
2019-05-02T21:15:22.472Z,11.70
2019-05-02T21:17:54.684Z,11.60
2019-05-02T21:20:24.032Z,11.50
2019-05-02T21:22:53.383Z,11.40
2019-05-02T21:25:23.378Z,11.60
2019-05-02T21:27:53.040Z,11.60
2019-05-02T21:30:26.201Z,11.50
2019-05-02T21:32:55.768Z,11.50
2019-05-02T21:35:25.221Z,11.60
2019-05-02T21:37:54.820Z,11.70
2019-05-02T21:40:25.802Z,11.70
2019-05-02T21:42:55.240Z,11.80
2019-05-02T21:45:24.806Z,12.10
2019-05-02T21:47:54.209Z,12.10
2019-05-02T21:50:43.751Z,12.10
2019-05-02T21:53:24.593Z,12.10
2019-05-02T21:56:02.803Z,12.10
2019-05-02T21:58:32.453Z,11.90
2019-05-02T22:01:12.932Z,11.90
2019-05-02T22:03:42.470Z,11.80
2019-05-02T22:06:12.204Z,12.00
2019-05-02T22:08:41.892Z,12.00
2019-05-02T22:11:12.270Z,11.80
2019-05-02T22:13:42.338Z,11.70
2019-05-02T22:16:12.932Z,11.60
2019-05-02T22:18:42.731Z,11.70
2019-05-02T22:21:12.494Z,11.70
2019-05-02T22:23:42.538Z,11.90
2019-05-02T22:26:12.727Z,11.80
2019-05-02T22:28:42.278Z,11.90
2019-05-02T22:31:12.339Z,11.80
2019-05-02T22:33:44.562Z,11.60
2019-05-02T22:36:13.194Z,11.40
2019-05-02T22:38:48.586Z,11.40
2019-05-02T22:41:17.933Z,11.40
2019-05-02T22:43:47.294Z,11.50
2019-05-02T22:46:35.673Z,11.70
2019-05-02T22:49:05.288Z,11.70
2019-05-02T22:51:36.548Z,11.70
2019-05-02T22:54:06.318Z,11.60
2019-05-02T22:56:35.851Z,11.50
2019-05-02T22:59:06.216Z,11.40
2019-05-02T23:01:35.545Z,11.40
2019-05-02T23:04:05.413Z,11.20
2019-05-02T23:06:35.013Z,11.10
2019-05-02T23:09:06.102Z,11.10
2019-05-02T23:11:35.567Z,11.10
2019-05-02T23:14:08.886Z,11.10
2019-05-02T23:16:38.185Z,11.00
2019-05-02T23:19:07.659Z,10.90
2019-05-02T23:21:37.082Z,10.90
2019-05-02T23:24:11.789Z,11.10
2019-05-02T23:26:57.571Z,11.10
2019-05-02T23:29:26.919Z,11.40
2019-05-02T23:31:56.256Z,11.50
2019-05-02T23:34:25.851Z,11.40
2019-05-02T23:36:55.100Z,11.60
2019-05-02T23:39:24.321Z,11.60
2019-05-02T23:41:53.670Z,11.30
2019-05-02T23:44:22.979Z,11.10
2019-05-02T23:46:52.463Z,10.90
2019-05-02T23:49:22.130Z,10.80
2019-05-02T23:51:52.015Z,10.70
2019-05-02T23:54:22.033Z,10.70
2019-05-02T23:56:51.484Z,10.80
2019-05-02T23:59:22.357Z,10.70
